createdAt,value
2022-10-23T00:01:38.472Z,0.00
2022-10-23T00:04:22.829Z,0.10
2022-10-23T00:06:49.777Z,0.03
2022-10-23T00:09:19.641Z,0.08
2022-10-23T00:11:47.738Z,0.10
2022-10-23T00:14:16.891Z,0.10
2022-10-23T00:16:43.853Z,0.00
2022-10-23T00:19:10.817Z,0.10
2022-10-23T00:21:38.551Z,0.10
2022-10-23T00:24:06.090Z,0.00
2022-10-23T00:26:32.992Z,0.10
2022-10-23T00:28:59.951Z,0.10
2022-10-23T00:31:26.833Z,0.00
2022-10-23T00:33:53.890Z,0.00
2022-10-23T00:36:22.011Z,0.05
2022-10-23T00:38:50.841Z,0.10
2022-10-23T00:41:24.481Z,0.10
2022-10-23T00:44:10.519Z,0.10
2022-10-23T00:46:39.375Z,0.17
2022-10-23T00:49:08.179Z,0.20
2022-10-23T00:51:57.379Z,0.10
2022-10-23T00:54:27.472Z,0.10
2022-10-23T00:56:59.182Z,0.10
2022-10-23T00:59:30.588Z,0.13
2022-10-23T01:01:59.093Z,0.20
2022-10-23T01:04:28.071Z,0.10
2022-10-23T01:07:10.227Z,0.10
2022-10-23T01:09:50.813Z,0.10
2022-10-23T01:12:33.311Z,0.20
2022-10-23T01:15:21.994Z,0.20
2022-10-23T01:17:57.111Z,0.20
2022-10-23T01:20:46.644Z,0.22
2022-10-23T01:23:51.016Z,0.20
2022-10-23T01:26:29.890Z,0.28
2022-10-23T01:29:01.895Z,0.45
2022-10-23T01:31:36.131Z,0.57
2022-10-23T01:34:13.028Z,2.33
2022-10-23T01:36:47.297Z,1.57
2022-10-23T01:39:45.164Z,1.17
2022-10-23T01:42:18.866Z,1.50
2022-10-23T01:45:09.333Z,1.83
2022-10-23T01:47:44.270Z,1.63
2022-10-23T01:50:16.022Z,1.80
2022-10-23T01:52:45.816Z,2.00
2022-10-23T01:55:14.455Z,1.63
2022-10-23T01:57:45.695Z,1.70
2022-10-23T02:00:16.376Z,1.20
2022-10-23T02:02:53.978Z,1.23
2022-10-23T02:05:28.865Z,0.60
2022-10-23T02:07:58.757Z,0.95
2022-10-23T02:10:45.338Z,0.70
2022-10-23T02:13:37.499Z,0.55
2022-10-23T02:16:42.237Z,0.43
2022-10-23T02:19:35.548Z,0.35
2022-10-23T02:22:23.986Z,0.50
2022-10-23T02:24:57.230Z,0.38
2022-10-23T02:27:31.889Z,0.30
2022-10-23T02:30:08.273Z,0.30
2022-10-23T02:32:39.383Z,0.30
2022-10-23T02:35:07.571Z,0.30
2022-10-23T02:37:34.867Z,0.10
2022-10-23T02:40:05.076Z,0.10
2022-10-23T02:43:11.009Z,0.10
2022-10-23T02:46:05.450Z,0.00
2022-10-23T02:49:02.690Z,0.30
2022-10-23T02:51:47.769Z,0.10
2022-10-23T02:54:29.507Z,0.10
2022-10-23T02:57:12.243Z,0.10
2022-10-23T02:59:47.892Z,0.10
2022-10-23T03:02:23.387Z,0.10
2022-10-23T03:04:53.012Z,0.00
2022-10-23T03:07:20.673Z,0.43
2022-10-23T03:09:47.852Z,0.53
2022-10-23T03:12:14.650Z,0.20
2022-10-23T03:14:41.480Z,0.10
2022-10-23T03:17:08.585Z,0.20
2022-10-23T03:19:35.390Z,0.20
2022-10-23T03:22:04.193Z,0.10
2022-10-23T03:24:31.088Z,0.20
2022-10-23T03:26:57.892Z,0.13
2022-10-23T03:29:31.235Z,0.20
2022-10-23T03:31:58.102Z,0.10
2022-10-23T03:34:25.732Z,0.20
2022-10-23T03:36:53.533Z,0.22
2022-10-23T03:39:21.058Z,0.10
2022-10-23T03:41:48.230Z,0.20
2022-10-23T03:44:16.603Z,0.30
2022-10-23T03:46:45.123Z,0.20
2022-10-23T03:49:11.936Z,0.10
2022-10-23T03:51:43.425Z,0.17
2022-10-23T03:54:10.615Z,0.20
2022-10-23T03:56:38.156Z,0.30
2022-10-23T03:59:07.704Z,0.20
2022-10-23T04:01:34.867Z,0.25
2022-10-23T04:04:02.376Z,0.13
2022-10-23T04:06:29.864Z,0.20
2022-10-23T04:08:58.408Z,0.20
2022-10-23T04:11:25.546Z,0.20
2022-10-23T04:13:52.865Z,0.30
2022-10-23T04:16:19.984Z,0.28
2022-10-23T04:18:46.906Z,0.10
2022-10-23T04:21:13.686Z,0.20
2022-10-23T04:23:40.484Z,0.30
2022-10-23T04:26:16.820Z,0.15
2022-10-23T04:28:52.840Z,0.13
2022-10-23T04:31:20.367Z,0.10
2022-10-23T04:33:47.533Z,0.20
2022-10-23T04:36:27.550Z,0.20
2022-10-23T04:38:54.307Z,0.20
2022-10-23T04:41:21.175Z,0.17
2022-10-23T04:43:48.011Z,0.20
2022-10-23T04:46:15.672Z,0.20
2022-10-23T04:48:46.400Z,0.10
2022-10-23T04:51:22.100Z,0.10
2022-10-23T04:53:54.299Z,0.00
2022-10-23T04:56:39.510Z,0.13
2022-10-23T04:59:10.254Z,0.08
2022-10-23T05:01:39.400Z,0.20
2022-10-23T05:04:07.913Z,0.10
2022-10-23T05:06:45.086Z,0.17
2022-10-23T05:09:27.864Z,0.10
2022-10-23T05:12:16.652Z,0.10
2022-10-23T05:14:43.475Z,0.10
2022-10-23T05:17:17.416Z,0.10
2022-10-23T05:19:50.915Z,0.20
2022-10-23T05:22:20.714Z,0.10
2022-10-23T05:24:54.673Z,0.15
2022-10-23T05:27:25.043Z,0.13
2022-10-23T05:29:54.265Z,0.10
2022-10-23T05:32:27.833Z,0.20
2022-10-23T05:34:55.410Z,0.10
2022-10-23T05:37:26.638Z,0.20
2022-10-23T05:40:03.795Z,0.20
2022-10-23T05:42:34.444Z,0.20
2022-10-23T05:45:05.086Z,0.30
2022-10-23T05:47:50.356Z,0.43
2022-10-23T05:50:37.580Z,0.40
2022-10-23T05:53:27.385Z,0.47
2022-10-23T05:56:12.958Z,0.57
2022-10-23T05:58:45.047Z,0.80
2022-10-23T06:01:32.312Z,0.95
2022-10-23T06:04:05.067Z,0.90
2022-10-23T06:06:49.220Z,0.67
2022-10-23T06:09:16.830Z,0.80
2022-10-23T06:11:44.506Z,1.20
2022-10-23T06:14:18.018Z,1.20
2022-10-23T06:16:45.086Z,0.77
2022-10-23T06:19:13.438Z,1.03
2022-10-23T06:21:42.207Z,0.88
2022-10-23T06:24:12.622Z,0.70
2022-10-23T06:27:08.298Z,1.05
2022-10-23T06:29:42.534Z,1.10
2022-10-23T06:32:09.459Z,1.03
2022-10-23T06:34:37.732Z,0.90
2022-10-23T06:37:07.561Z,1.00
2022-10-23T06:39:46.114Z,1.15
2022-10-23T06:42:16.290Z,1.00
2022-10-23T06:44:52.116Z,1.90
2022-10-23T06:47:37.383Z,2.92
2022-10-23T06:50:23.229Z,3.00
2022-10-23T06:52:50.057Z,2.80
2022-10-23T06:55:18.664Z,3.20
2022-10-23T06:57:46.770Z,2.83
2022-10-23T07:00:13.968Z,2.92
2022-10-23T07:02:51.927Z,2.60
2022-10-23T07:05:20.268Z,2.80
2022-10-23T07:07:47.763Z,2.17
2022-10-23T07:10:19.833Z,2.10
2022-10-23T07:12:52.428Z,2.00
2022-10-23T07:15:40.368Z,1.67
2022-10-23T07:18:11.817Z,1.90
2022-10-23T07:20:59.800Z,2.13
2022-10-23T07:23:28.177Z,2.20
2022-10-23T07:25:55.476Z,1.65
2022-10-23T07:28:23.656Z,2.15
2022-10-23T07:31:01.097Z,2.50
2022-10-23T07:33:48.290Z,3.40
2022-10-23T07:36:19.165Z,2.10
2022-10-23T07:38:46.716Z,1.30
2022-10-23T07:41:13.602Z,5.10
2022-10-23T07:43:40.399Z,1.90
2022-10-23T07:46:07.993Z,1.40
2022-10-23T07:48:39.599Z,1.60
2022-10-23T07:51:13.580Z,1.27
2022-10-23T07:53:44.618Z,1.63
2022-10-23T07:56:50.011Z,1.40
2022-10-23T07:59:21.020Z,1.45
2022-10-23T08:01:55.710Z,1.30
2022-10-23T08:04:28.096Z,1.40
2022-10-23T08:06:59.966Z,1.20
2022-10-23T08:09:29.907Z,1.40
2022-10-23T08:11:57.512Z,1.60
2022-10-23T08:14:27.494Z,1.30
2022-10-23T08:16:55.515Z,0.82
2022-10-23T08:19:48.625Z,1.20
2022-10-23T08:22:16.571Z,0.77
2022-10-23T08:24:44.563Z,1.30
2022-10-23T08:27:11.432Z,1.60
2022-10-23T08:29:43.346Z,1.60
2022-10-23T08:32:10.304Z,1.55
2022-10-23T08:34:58.045Z,1.48
2022-10-23T08:37:27.216Z,1.50
2022-10-23T08:39:54.178Z,1.40
2022-10-23T08:42:40.373Z,1.80
2022-10-23T08:45:33.633Z,1.70
2022-10-23T08:48:21.587Z,1.73
2022-10-23T08:51:23.669Z,1.50
2022-10-23T08:54:06.597Z,1.30
2022-10-23T08:56:39.388Z,1.58
2022-10-23T08:59:21.258Z,1.63
2022-10-23T09:01:56.123Z,1.42
2022-10-23T09:04:23.042Z,1.80
2022-10-23T09:07:13.317Z,1.73
2022-10-23T09:10:02.006Z,1.60
2022-10-23T09:12:30.909Z,2.28
2022-10-23T09:15:24.264Z,2.00
2022-10-23T09:18:08.129Z,1.90
2022-10-23T09:20:36.100Z,1.97
2022-10-23T09:23:19.939Z,1.73
2022-10-23T09:25:48.862Z,1.70
2022-10-23T09:28:28.372Z,1.92
2022-10-23T09:31:06.778Z,1.80
2022-10-23T09:33:33.890Z,2.00
2022-10-23T09:36:04.083Z,2.20
2022-10-23T09:38:46.921Z,2.50
2022-10-23T09:41:35.641Z,2.83
2022-10-23T09:44:08.161Z,2.47
2022-10-23T09:46:43.220Z,2.67
2022-10-23T09:49:22.775Z,3.35
2022-10-23T09:52:35.052Z,2.60
2022-10-23T09:55:15.413Z,2.22
2022-10-23T09:57:44.702Z,2.03
2022-10-23T10:00:14.647Z,2.47
2022-10-23T10:02:44.446Z,1.98
2022-10-23T10:05:33.084Z,2.40
2022-10-23T10:08:38.433Z,2.40
2022-10-23T10:11:32.074Z,2.30
2022-10-23T10:14:08.096Z,2.73
2022-10-23T10:16:57.233Z,2.75
2022-10-23T10:23:20.660Z,2.30
2022-10-23T10:26:23.044Z,2.55
2022-10-23T10:29:13.996Z,3.10
2022-10-23T10:31:59.379Z,3.13
2022-10-23T10:34:47.685Z,2.60
2022-10-23T10:37:34.968Z,2.60
2022-10-23T10:40:22.042Z,2.28
2022-10-23T10:43:06.900Z,2.00
2022-10-23T10:45:39.490Z,2.03
2022-10-23T10:48:15.320Z,2.20
2022-10-23T10:51:11.571Z,2.22
2022-10-23T10:54:04.612Z,2.30
2022-10-23T10:56:35.473Z,1.97
2022-10-23T10:59:10.515Z,1.67
2022-10-23T11:01:45.826Z,1.38
2022-10-23T11:04:28.573Z,2.00
2022-10-23T11:06:57.539Z,1.80
2022-10-23T11:09:28.776Z,2.30
2022-10-23T11:11:57.554Z,2.15
2022-10-23T11:14:28.040Z,1.98
2022-10-23T11:17:00.774Z,2.00
2022-10-23T11:19:57.113Z,1.80
2022-10-23T11:22:50.157Z,1.93
2022-10-23T11:25:55.650Z,2.10
2022-10-23T11:28:26.376Z,1.60
2022-10-23T11:31:11.756Z,1.77
2022-10-23T11:33:57.603Z,2.05
2022-10-23T11:36:54.337Z,1.97
2022-10-23T11:39:27.582Z,1.88
2022-10-23T11:41:59.354Z,2.10
2022-10-23T11:44:45.350Z,2.13
2022-10-23T11:47:39.640Z,2.13
2022-10-23T11:50:07.557Z,2.30
2022-10-23T11:52:45.727Z,2.22
2022-10-23T11:55:19.961Z,2.10
2022-10-23T11:58:14.836Z,1.73
2022-10-23T12:01:18.042Z,1.70
2022-10-23T12:03:55.977Z,1.90
2022-10-23T12:06:29.809Z,1.98
2022-10-23T12:09:02.727Z,1.70
2022-10-23T12:11:48.470Z,2.10
2022-10-23T12:14:33.303Z,1.83
2022-10-23T12:17:00.836Z,1.93
2022-10-23T12:19:31.492Z,2.30
2022-10-23T12:22:01.250Z,2.22
2022-10-23T12:24:48.186Z,2.17
2022-10-23T12:27:20.129Z,1.90
2022-10-23T12:30:00.247Z,1.77
2022-10-23T12:32:52.564Z,1.63
2022-10-23T12:35:50.345Z,1.70
2022-10-23T12:38:32.575Z,1.65
2022-10-23T12:41:25.084Z,1.60
2022-10-23T12:43:56.971Z,1.95
2022-10-23T12:46:34.758Z,1.88
2022-10-23T12:49:12.722Z,2.08
2022-10-23T12:51:39.550Z,1.65
2022-10-23T12:54:21.575Z,2.20
2022-10-23T12:56:50.354Z,2.40
2022-10-23T12:59:26.029Z,2.13
2022-10-23T13:01:54.749Z,1.85
2022-10-23T13:04:34.591Z,2.33
2022-10-23T13:07:03.939Z,1.92
2022-10-23T13:09:41.055Z,2.00
2022-10-23T13:12:39.396Z,2.17
2022-10-23T13:15:06.153Z,1.77
2022-10-23T13:17:44.068Z,2.03
2022-10-23T13:20:17.452Z,2.00
2022-10-23T13:23:14.130Z,1.80
2022-10-23T13:25:41.266Z,1.95
2022-10-23T13:28:07.999Z,2.25
2022-10-23T13:30:40.887Z,2.55
2022-10-23T13:33:32.078Z,3.28
2022-10-23T13:36:02.175Z,3.50
2022-10-23T13:38:37.851Z,3.20
2022-10-23T13:41:17.647Z,3.33
2022-10-23T13:43:47.143Z,3.10
2022-10-23T13:46:15.130Z,3.15
2022-10-23T13:48:42.336Z,3.75
2022-10-23T13:51:24.396Z,3.33
2022-10-23T13:53:54.175Z,3.67
2022-10-23T13:56:24.139Z,3.95
2022-10-23T13:58:51.515Z,3.67
2022-10-23T14:01:33.417Z,4.07
2022-10-23T14:04:00.701Z,3.13
2022-10-23T14:06:27.822Z,3.55
2022-10-23T14:08:54.851Z,4.10
2022-10-23T14:11:22.042Z,3.70
2022-10-23T14:13:50.022Z,4.40
2022-10-23T14:16:19.430Z,4.28
2022-10-23T14:18:47.190Z,3.90
2022-10-23T14:21:16.900Z,4.63
2022-10-23T14:23:43.791Z,4.60
2022-10-23T14:26:14.181Z,4.73
2022-10-23T14:28:41.678Z,4.88
2022-10-23T14:31:12.069Z,4.60
2022-10-23T14:33:40.123Z,4.88
2022-10-23T14:36:08.443Z,4.68
2022-10-23T14:38:37.012Z,4.20
2022-10-23T14:41:10.478Z,4.70
2022-10-23T14:43:37.973Z,4.93
2022-10-23T14:46:10.274Z,5.18
2022-10-23T14:48:37.437Z,5.00
2022-10-23T14:51:07.476Z,5.63
2022-10-23T14:53:34.666Z,5.53
2022-10-23T14:56:04.083Z,6.93
2022-10-23T14:58:31.179Z,6.10
2022-10-23T15:00:59.877Z,6.65
2022-10-23T15:03:29.229Z,7.00
2022-10-23T15:05:56.827Z,6.38
2022-10-23T15:08:24.081Z,7.05
2022-10-23T15:10:51.265Z,7.00
2022-10-23T15:13:18.143Z,6.65
2022-10-23T15:15:45.292Z,6.53
2022-10-23T15:18:12.400Z,7.60
2022-10-23T15:20:39.992Z,8.48
2022-10-23T15:23:07.404Z,7.60
2022-10-23T15:25:34.591Z,8.00
2022-10-23T15:28:01.510Z,8.00
2022-10-23T15:30:28.489Z,9.13
2022-10-23T15:32:55.879Z,9.45
2022-10-23T15:35:22.944Z,9.02
2022-10-23T15:37:50.665Z,7.47
2022-10-23T15:40:17.583Z,8.33
2022-10-23T15:42:45.407Z,8.70
2022-10-23T15:45:16.383Z,8.60
2022-10-23T15:47:43.885Z,11.02
2022-10-23T15:50:10.826Z,10.25
2022-10-23T15:52:38.023Z,9.83
2022-10-23T15:55:05.445Z,10.90
2022-10-23T15:57:32.744Z,11.02
2022-10-23T16:00:00.287Z,10.98
2022-10-23T16:02:27.874Z,12.02
2022-10-23T16:04:55.208Z,11.07
2022-10-23T16:07:22.232Z,11.70
2022-10-23T16:09:49.191Z,11.65
2022-10-23T16:12:16.363Z,10.63
2022-10-23T16:14:43.410Z,10.02
2022-10-23T16:17:12.218Z,11.20
2022-10-23T16:19:40.866Z,9.50
2022-10-23T16:22:08.415Z,9.77
2022-10-23T16:24:35.466Z,9.00
2022-10-23T16:27:02.430Z,10.05
2022-10-23T16:29:29.950Z,11.77
2022-10-23T16:31:57.703Z,11.07
2022-10-23T16:34:24.802Z,10.13
2022-10-23T16:36:53.382Z,10.50
2022-10-23T16:39:28.959Z,10.80
2022-10-23T16:42:34.710Z,11.03
2022-10-23T16:45:12.772Z,10.20
2022-10-23T16:47:41.224Z,10.00
2022-10-23T16:50:08.982Z,12.18
2022-10-23T16:52:36.120Z,15.98
2022-10-23T16:55:04.838Z,15.53
2022-10-23T16:57:35.780Z,13.38
2022-10-23T17:00:05.307Z,13.00
2022-10-23T17:02:33.527Z,12.02
2022-10-23T17:05:01.975Z,11.27
2022-10-23T17:07:29.713Z,11.07
2022-10-23T17:09:57.364Z,10.02
2022-10-23T17:12:24.613Z,10.45
2022-10-23T17:14:52.304Z,11.30
2022-10-23T17:17:19.891Z,10.50
2022-10-23T17:19:50.106Z,9.37
2022-10-23T17:22:17.763Z,10.77
2022-10-23T17:24:48.714Z,10.77
2022-10-23T17:27:19.401Z,10.57
2022-10-23T17:33:13.402Z,11.13
2022-10-23T17:35:45.740Z,11.07
2022-10-23T17:38:15.814Z,10.48
2022-10-23T17:43:16.869Z,13.48
2022-10-23T17:45:46.437Z,14.30
2022-10-23T17:48:14.661Z,12.00
2022-10-23T17:50:42.389Z,11.10
2022-10-23T17:53:12.465Z,11.38
2022-10-23T17:55:42.516Z,11.55
2022-10-23T17:58:10.501Z,11.70
2022-10-23T18:00:38.449Z,13.10
2022-10-23T18:03:08.020Z,12.40
2022-10-23T18:05:36.511Z,12.15
2022-10-23T18:08:04.214Z,11.73
2022-10-23T18:10:35.282Z,14.50
2022-10-23T18:13:03.456Z,13.02
2022-10-23T18:15:34.450Z,13.52
2022-10-23T18:18:03.635Z,14.90
2022-10-23T18:20:31.390Z,14.15
2022-10-23T18:22:59.523Z,13.33
2022-10-23T18:25:27.437Z,13.55
2022-10-23T18:27:57.157Z,15.02
2022-10-23T18:30:28.252Z,16.20
2022-10-23T18:32:57.531Z,16.02
2022-10-23T18:38:30.435Z,13.85
2022-10-23T18:40:58.504Z,14.70
2022-10-23T18:43:42.511Z,14.18
2022-10-23T18:46:15.023Z,16.52
2022-10-23T18:48:43.948Z,16.90
2022-10-23T18:51:23.999Z,15.98
2022-10-23T18:53:52.707Z,17.38
2022-10-23T18:56:23.944Z,17.02
2022-10-23T18:58:54.488Z,17.40
2022-10-23T19:01:23.097Z,17.60
2022-10-23T19:03:51.419Z,15.68
2022-10-23T19:06:21.357Z,15.98
2022-10-23T19:08:49.879Z,15.43
2022-10-23T19:11:19.708Z,17.23
2022-10-23T19:13:48.835Z,16.90
2022-10-23T19:16:31.437Z,15.32
2022-10-23T19:19:04.455Z,14.57
2022-10-23T19:21:38.458Z,13.82
2022-10-23T19:24:10.390Z,13.10
2022-10-23T19:26:40.399Z,13.73
2022-10-23T19:29:12.141Z,15.20
2022-10-23T19:31:40.581Z,13.63
2022-10-23T19:34:08.541Z,13.35
2022-10-23T19:36:36.497Z,14.27
2022-10-23T19:39:04.399Z,15.67
2022-10-23T19:41:32.259Z,15.20
2022-10-23T19:44:02.161Z,16.58
2022-10-23T19:46:30.461Z,14.98
2022-10-23T19:48:58.221Z,15.10
2022-10-23T19:51:26.050Z,16.50
2022-10-23T19:53:55.562Z,16.98
2022-10-23T19:56:24.406Z,16.88
2022-10-23T19:58:52.324Z,17.13
2022-10-23T20:01:25.424Z,16.02
2022-10-23T20:03:54.600Z,15.90
2022-10-23T20:06:29.211Z,15.60
2022-10-23T20:08:57.495Z,18.23
2022-10-23T20:11:28.948Z,17.95
2022-10-23T20:13:57.721Z,17.38
2022-10-23T20:16:36.835Z,14.60
2022-10-23T20:19:07.306Z,15.30
2022-10-23T20:21:40.901Z,17.08
2022-10-23T20:24:10.178Z,16.55
2022-10-23T20:26:41.787Z,17.13
2022-10-23T20:29:09.540Z,16.20
2022-10-23T20:31:38.080Z,16.67
2022-10-23T20:34:09.379Z,15.48
2022-10-23T20:36:42.326Z,15.13
2022-10-23T20:39:18.881Z,15.25
2022-10-23T20:41:47.008Z,15.60
2022-10-23T20:46:50.310Z,16.92
2022-10-23T20:49:19.824Z,15.57
2022-10-23T20:51:55.439Z,17.80
2022-10-23T20:54:27.114Z,15.53
2022-10-23T20:56:54.400Z,16.20
2022-10-23T20:59:21.615Z,15.70
2022-10-23T21:01:50.839Z,15.15
2022-10-23T21:04:20.445Z,14.40
2022-10-23T21:07:08.961Z,13.50
2022-10-23T21:09:36.499Z,15.70
2022-10-23T21:12:03.417Z,14.85
2022-10-23T21:14:30.196Z,15.23
2022-10-23T21:16:56.950Z,15.60
2022-10-23T21:19:23.674Z,15.37
2022-10-23T21:21:50.528Z,14.63
2022-10-23T21:24:17.753Z,14.63
2022-10-23T21:26:45.522Z,14.63
2022-10-23T21:29:20.814Z,13.88
2022-10-23T21:31:59.657Z,15.40
2022-10-23T21:34:27.081Z,15.73
2022-10-23T21:37:11.927Z,14.88
2022-10-23T21:39:39.050Z,14.18
2022-10-23T21:42:05.802Z,15.18
2022-10-23T21:44:32.784Z,15.57
2022-10-23T21:46:59.605Z,13.68
2022-10-23T21:49:26.452Z,14.45
2022-10-23T21:51:53.222Z,14.32
2022-10-23T21:54:19.990Z,13.88
2022-10-23T21:56:49.118Z,14.83
2022-10-23T21:59:18.817Z,13.15
2022-10-23T22:01:47.734Z,14.05
2022-10-23T22:04:16.232Z,13.25
2022-10-23T22:06:43.942Z,13.05
2022-10-23T22:09:14.298Z,12.83
2022-10-23T22:11:41.787Z,12.35
2022-10-23T22:14:08.702Z,12.57
2022-10-23T22:16:35.541Z,13.10
2022-10-23T22:19:02.561Z,12.95
2022-10-23T22:21:30.827Z,12.53
2022-10-23T22:23:59.470Z,11.80
2022-10-23T22:26:29.810Z,11.57
2022-10-23T22:28:59.710Z,10.73
2022-10-23T22:31:30.118Z,9.43
2022-10-23T22:33:58.012Z,8.10
2022-10-23T22:36:26.261Z,8.27
2022-10-23T22:38:55.122Z,8.25
2022-10-23T22:41:22.811Z,7.45
2022-10-23T22:43:55.200Z,8.13
2022-10-23T22:46:25.529Z,7.77
2022-10-23T22:48:53.076Z,7.25
2022-10-23T22:51:22.283Z,6.60
2022-10-23T22:53:49.088Z,6.88
2022-10-23T22:56:19.760Z,7.20
2022-10-23T22:58:47.681Z,7.20
2022-10-23T23:01:27.352Z,6.75
2022-10-23T23:03:54.850Z,6.30
2022-10-23T23:06:23.586Z,6.90
2022-10-23T23:08:51.061Z,6.32
2022-10-23T23:11:19.983Z,6.00
2022-10-23T23:13:47.846Z,5.72
2022-10-23T23:16:26.482Z,5.85
2022-10-23T23:18:53.495Z,6.60
2022-10-23T23:21:20.657Z,6.43
2022-10-23T23:23:48.462Z,6.10
2022-10-23T23:26:15.652Z,6.50
2022-10-23T23:28:43.193Z,5.95
2022-10-23T23:31:19.461Z,6.25
2022-10-23T23:33:47.476Z,5.78
2022-10-23T23:36:20.411Z,5.83
2022-10-23T23:38:47.485Z,5.50
2022-10-23T23:41:16.885Z,6.25
2022-10-23T23:43:44.543Z,7.07
2022-10-23T23:46:12.417Z,6.10
2022-10-23T23:48:40.716Z,6.07
2022-10-23T23:51:07.536Z,6.35
2022-10-23T23:53:34.300Z,6.28
2022-10-23T23:56:01.089Z,6.05
2022-10-23T23:58:28.067Z,6.10
